INFORMAÇÕES METEOROLÓGICAS
METAR FOR OTBD
ADDS - METARS form results

(1457 UTC 21 January 2022)
Data provider http://aviationweather.gov/metar/data/
 
METAR text: OTBD 211430Z 31014G24KT 8000 FEW040 14/03 Q1023 NOSIG
Conditions at: OTBD (DOHA INTL AIRPOR, QA) observed 1430 UTC 21 January 2022
Temperature: 14.0°C (57°F)
Dewpoint: 3.0°C (37°F) [RH = 47%]
Pressure (altimeter): 30.21 inches Hg (1023.0 mb)
Winds: from the NW (310 degrees) at 16 MPH (14 knots; 7.2 m/s)
gusting to 28 MPH (24 knots; 12.3 m/s)
Visibility: 5 miles ( 8 km)
Ceiling: at least 12,000 feet AGL
Clouds: few clouds at 4000 feet AGL
Weather: no significant weather observed at this time

METAR text: OTBD 211400Z 31017KT 280V340 9000 FEW040 14/04 Q1023 NOSIG
Conditions at: OTBD (DOHA INTL AIRPOR, QA) observed 1400 UTC 21 January 2022
Temperature: 14.0°C (57°F)
Dewpoint: 4.0°C (39°F) [RH = 51%]
Pressure (altimeter): 30.21 inches Hg (1023.0 mb)
Winds: from the NW (310 degrees) at 20 MPH (17 knots; 8.7 m/s)
Visibility: 6 miles ( 9 km)
Ceiling: at least 12,000 feet AGL
Clouds: few clouds at 4000 feet AGL
Weather: no significant weather observed at this time

Forecast for: OTBD (DOHA INTL AIRPOR, QA)
Text: TAF OTBD 211115Z 2112/2218 32018KT 7000 NSC
Forecast period: 1200 UTC 21 January 2022 to 1800 UTC 22 January 2022
Forecast type: FROM: standard forecast or significant change
Winds: from the NW (320 degrees) at 21 MPH (18 knots; 9.3 m/s)
Visibility: 4 miles (7 km)
Ceiling: unknown
Clouds: missing
Weather: no significant weather forecast for this period
Text: TEMPO 2112/2117 32025G35KT 4000 BLDU
Forecast period: 1200 to 1700 UTC 21 January 2022
Forecast type: TEMPORARY: The following changes expected for less than half the time period
Winds: from the NW (320 degrees) at 29 MPH (25 knots; 12.9 m/s)
gusting to 40 MPH (35 knots; 18.0 m/s)
Visibility: 2.49 miles (4.01 km)
Ceiling: unknown
Clouds: missing
Weather: BLDU  (blowing dust)
Text: PROB40
Forecast period: 1200 to 1600 UTC 21 January 2022
Forecast type: TEMPORARY: The following changes expected for less than half the time period
Visibility: 0.93 miles (1.50 km)
Ceiling: unknown
Clouds: missing
Weather: DU  (widespread dust)

 MAPA DO AEROPORTO

 INFORMAÇÕES DA PISTA
Pista 15 Tamanho da pista 15000 ft Largura da pista 151 ft
Elevação da pista 35 ft Ranhura da pista 2460 ft Proa da pista 158
Pista 33 Tamanho da pista 15000 ft Largura da pista 151 ft
Elevação da pista 25 ft Ranhura da pista 0 ft Proa da pista 338

 FREQUÊNCIAS DO AEROPORTO
Tipo APP Nome APP Frequência 121.1 MHZ
Tipo ATIS Nome ATIS Frequência 126.45 MHZ
Tipo GND Nome GND Frequência 118.275 MHZ
Tipo OPS Nome KINGFISH N Frequência 139.5 MHZ
Tipo TWR Nome TWR Frequência 118.9 MHZ

 AUXÍLIOS DE NAVEGAÇÃO PRÓXIMOS AO AEROPORTO
Tipo VOR-DME Nome Doha Frequência 112400 KHZ
Tipo NDB Nome Wk Frequência 323 KHZ